Terminal Aerodrome Forecast
Issued by NWS

Home | Current Version | Previous Version | Graphics & Text | Print | Product List | Glossary On
Versions: 1 2 3 4 5 6 7 8 9 10 11 12 13 14 15
000
FTUS43 KICT 211100
TAFCNU
TAF
KCNU 211120Z 2112/2212 18011KT P6SM SKC
     FM211500 19017G26KT P6SM FEW050 SCT250
     FM220000 18011KT P6SM SCT150=

USA.gov is the U.S. government's official web portal to all federal, state and local government web resources and services.